Time;durP1;ratioP1;P1;durP2;ratioP2;P2;SDS_P1;SDS_P2;PMS_P1;PMS_P2;Temp;Humidity;BMP_temperature;BMP_pressure;BME280_temperature;BME280_humidity;BME280_pressure;Samples;Min_cycle;Max_cycle;Signal;HPM_P1;HPM_P2
2023/08/16 00:02:04;;;;;;;;;;;22.70;60.50;;;;;;4953515;28;87188;-46
2023/08/16 00:04:29;;;;;;;;;;;22.70;60.50;;;;;;4953480;28;87697;-46
2023/08/16 00:06:55;;;;;;;;;;;22.70;60.50;;;;;;4949172;28;91203;-46
2023/08/16 00:09:21;;;;;;;;;;;22.70;61.20;;;;;;4953432;28;87045;-47
2023/08/16 00:11:46;;;;;;;;;;;22.70;60.50;;;;;;4950831;28;87758;-48
2023/08/16 00:14:12;;;;;;;;;;;22.70;60.50;;;;;;4952655;28;87376;-46
2023/08/16 00:16:37;;;;;;;;;;;22.70;60.50;;;;;;4954199;28;87116;-45
2023/08/16 00:19:03;;;;;;;;;;;22.70;60.50;;;;;;4952244;28;87085;-46
2023/08/16 00:21:29;;;;;;;;;;;22.60;60.40;;;;;;4952097;28;89172;-45
2023/08/16 00:23:54;;;;;;;;;;;22.60;60.50;;;;;;4952683;28;87550;-45
2023/08/16 00:26:20;;;;;;;;;;;22.60;60.40;;;;;;4952226;28;88192;-47
2023/08/16 00:28:47;;;;;;;;;;;22.60;60.40;;;;;;4954123;28;87160;-46
2023/08/16 00:31:13;;;;;;;;;;;22.60;60.40;;;;;;4950026;28;89259;-45
2023/08/16 00:33:38;;;;;;;;;;;22.60;60.40;;;;;;4953945;28;88004;-45
2023/08/16 00:36:04;;;;;;;;;;;22.60;60.30;;;;;;4950021;28;87286;-46
2023/08/16 00:38:30;;;;;;;;;;;22.60;60.50;;;;;;4951895;28;87519;-45
2023/08/16 00:40:57;;;;;;;;;;;22.60;60.40;;;;;;4952228;28;88618;-47
2023/08/16 00:43:23;;;;;;;;;;;22.60;60.40;;;;;;4954925;28;87501;-46
2023/08/16 00:45:48;;;;;;;;;;;22.60;60.40;;;;;;4951692;28;89223;-46
2023/08/16 00:48:14;;;;;;;;;;;22.50;60.30;;;;;;4950887;28;87627;-45
2023/08/16 00:50:40;;;;;;;;;;;22.50;60.30;;;;;;4949904;28;87614;-45
2023/08/16 00:53:06;;;;;;;;;;;22.50;60.40;;;;;;4953532;28;88207;-45
2023/08/16 00:55:33;;;;;;;;;;;22.50;60.30;;;;;;4951583;28;87190;-46
2023/08/16 00:57:58;;;;;;;;;;;22.50;60.30;;;;;;4951798;28;88990;-46
2023/08/16 01:00:24;;;;;;;;;;;22.50;60.30;;;;;;4950759;28;89303;-45
2023/08/16 01:02:50;;;;;;;;;;;22.50;60.40;;;;;;4953748;28;86370;-47
2023/08/16 01:05:16;;;;;;;;;;;22.50;60.40;;;;;;4953625;28;87475;-46
2023/08/16 01:07:41;;;;;;;;;;;22.50;60.40;;;;;;4949886;28;87691;-45
2023/08/16 01:10:08;;;;;;;;;;;22.50;60.30;;;;;;4950777;28;88377;-45
2023/08/16 01:12:36;;;;;;;;;;;22.40;60.30;;;;;;4952818;28;88207;-46
2023/08/16 01:15:05;;;;;;;;;;;22.40;60.40;;;;;;4950700;28;87152;-46
2023/08/16 01:17:31;;;;;;;;;;;22.40;60.30;;;;;;4952910;28;87595;-46
2023/08/16 01:19:57;;;;;;;;;;;22.40;60.30;;;;;;4950393;28;87072;-45
2023/08/16 01:22:28;;;;;;;;;;;22.40;60.30;;;;;;4952452;28;87237;-47
2023/08/16 01:25:11;;;;;;;;;;;22.40;60.30;;;;;;4949063;28;90617;-45
2023/08/16 01:27:36;;;;;;;;;;;22.40;60.30;;;;;;4956651;28;87326;-46
2023/08/16 01:30:03;;;;;;;;;;;22.30;60.30;;;;;;4949988;28;87201;-46
2023/08/16 01:32:30;;;;;;;;;;;22.40;60.30;;;;;;4952192;28;89095;-45
2023/08/16 01:34:55;;;;;;;;;;;22.30;60.30;;;;;;4951178;28;88019;-46
2023/08/16 01:37:21;;;;;;;;;;;22.30;60.30;;;;;;4947562;28;88402;-45
2023/08/16 01:39:49;;;;;;;;;;;22.30;60.30;;;;;;4952144;28;88478;-45
2023/08/16 01:42:17;;;;;;;;;;;22.30;60.30;;;;;;4950194;28;87124;-46
2023/08/16 01:44:45;;;;;;;;;;;22.30;60.30;;;;;;4946343;28;87014;-46
2023/08/16 01:47:14;;;;;;;;;;;22.30;60.40;;;;;;4949883;28;88394;-46
2023/08/16 01:49:41;;;;;;;;;;;22.20;60.30;;;;;;4954322;28;87178;-45
2023/08/16 01:52:07;;;;;;;;;;;22.20;60.30;;;;;;4952178;28;90181;-46
2023/08/16 01:54:33;;;;;;;;;;;22.20;60.40;;;;;;4953946;28;87118;-45
2023/08/16 01:56:58;;;;;;;;;;;22.20;60.30;;;;;;4956949;28;87553;-46
2023/08/16 01:59:24;;;;;;;;;;;22.20;60.30;;;;;;4952379;28;88985;-46
2023/08/16 02:01:49;;;;;;;;;;;22.20;60.30;;;;;;4955491;28;88886;-46
2023/08/16 02:04:15;;;;;;;;;;;22.20;60.30;;;;;;4954425;28;87536;-46
2023/08/16 02:06:40;;;;;;;;;;;22.20;60.30;;;;;;4952540;28;87506;-45
2023/08/16 02:09:06;;;;;;;;;;;22.20;60.30;;;;;;4955839;28;87088;-45
2023/08/16 02:11:31;;;;;;;;;;;22.10;60.80;;;;;;4953010;28;88202;-46
2023/08/16 02:13:57;;;;;;;;;;;22.20;60.30;;;;;;4956086;28;87134;-46
2023/08/16 02:16:23;;;;;;;;;;;22.20;60.30;;;;;;4952566;28;89286;-45
2023/08/16 02:18:49;;;;;;;;;;;22.10;60.30;;;;;;4955786;28;89729;-46
2023/08/16 02:21:14;;;;;;;;;;;22.10;60.20;;;;;;4953563;28;87162;-46
2023/08/16 02:23:40;;;;;;;;;;;22.10;60.20;;;;;;4954351;28;87993;-46
2023/08/16 02:26:05;;;;;;;;;;;22.10;60.20;;;;;;4950724;28;88939;-47
2023/08/16 02:28:31;;;;;;;;;;;22.10;60.30;;;;;;4952603;28;87389;-45
2023/08/16 02:31:06;;;;;;;;;;;22.10;60.30;;;;;;4957437;28;87546;-45
2023/08/16 02:33:32;;;;;;;;;;;22.10;60.80;;;;;;4949131;28;87089;-45
2023/08/16 02:35:58;;;;;;;;;;;22.10;60.30;;;;;;4955440;28;87528;-46
2023/08/16 02:38:23;;;;;;;;;;;22.10;60.20;;;;;;4953805;28;88660;-46
2023/08/16 02:40:49;;;;;;;;;;;22.10;60.30;;;;;;4955902;28;86421;-46
2023/08/16 02:43:14;;;;;;;;;;;22.00;60.10;;;;;;4954044;28;87045;-45
2023/08/16 02:45:40;;;;;;;;;;;22.00;60.20;;;;;;4950463;28;89241;-45
2023/08/16 02:48:06;;;;;;;;;;;22.00;60.20;;;;;;4955153;28;88991;-45
2023/08/16 02:50:31;;;;;;;;;;;22.00;60.20;;;;;;4952475;28;88379;-46
2023/08/16 02:52:57;;;;;;;;;;;22.00;60.20;;;;;;4957662;28;88047;-46
2023/08/16 02:55:22;;;;;;;;;;;22.00;60.30;;;;;;4953335;28;87527;-45
2023/08/16 02:57:48;;;;;;;;;;;22.00;60.30;;;;;;4954310;28;87267;-46
2023/08/16 03:00:14;;;;;;;;;;;21.90;60.20;;;;;;4954338;28;87161;-45
2023/08/16 03:02:39;;;;;;;;;;;21.90;60.20;;;;;;4951023;28;87133;-45
2023/08/16 03:05:06;;;;;;;;;;;21.90;60.20;;;;;;4953187;28;88675;-47
2023/08/16 03:07:32;;;;;;;;;;;21.90;60.20;;;;;;4950718;28;87226;-47
2023/08/16 03:09:58;;;;;;;;;;;21.90;60.30;;;;;;4955593;28;87392;-45
2023/08/16 03:12:23;;;;;;;;;;;21.90;60.30;;;;;;4952931;28;88102;-46
2023/08/16 03:14:49;;;;;;;;;;;21.90;60.20;;;;;;4955937;28;87159;-47
2023/08/16 03:17:15;;;;;;;;;;;21.80;60.20;;;;;;4951492;28;88185;-46
2023/08/16 03:19:40;;;;;;;;;;;21.80;60.10;;;;;;4952205;28;87089;-46
2023/08/16 03:22:06;;;;;;;;;;;21.80;60.10;;;;;;4953416;28;87656;-45
2023/08/16 03:24:32;;;;;;;;;;;21.80;60.20;;;;;;4951522;28;89551;-46
2023/08/16 03:26:58;;;;;;;;;;;21.80;60.20;;;;;;4953288;28;87179;-46
2023/08/16 03:29:23;;;;;;;;;;;21.80;60.10;;;;;;4955781;28;87923;-46
2023/08/16 03:31:49;;;;;;;;;;;21.80;60.10;;;;;;4950445;28;88198;-49
2023/08/16 03:34:15;;;;;;;;;;;21.80;60.20;;;;;;4952344;28;87230;-47
2023/08/16 03:36:41;;;;;;;;;;;21.80;60.30;;;;;;4951309;28;88986;-46
2023/08/16 03:39:06;;;;;;;;;;;21.70;60.20;;;;;;4950545;28;87623;-46
2023/08/16 03:41:33;;;;;;;;;;;21.70;60.10;;;;;;4942771;28;87567;-45
2023/08/16 03:43:59;;;;;;;;;;;21.70;60.20;;;;;;4951933;28;87967;-46
2023/08/16 03:46:25;;;;;;;;;;;21.70;60.20;;;;;;4948529;28;87194;-46
2023/08/16 03:48:50;;;;;;;;;;;21.70;60.20;;;;;;4946791;28;87528;-45
2023/08/16 03:51:16;;;;;;;;;;;21.70;60.10;;;;;;4947353;28;88405;-45
2023/08/16 03:53:41;;;;;;;;;;;21.70;60.00;;;;;;4953197;28;86429;-45
2023/08/16 03:56:07;;;;;;;;;;;21.70;60.00;;;;;;4944419;28;88260;-45
2023/08/16 03:58:32;;;;;;;;;;;21.70;60.10;;;;;;4944429;28;88152;-45
2023/08/16 04:00:58;;;;;;;;;;;21.60;60.10;;;;;;4950702;28;87964;-45
2023/08/16 04:03:23;;;;;;;;;;;21.60;60.10;;;;;;4953179;28;88022;-45
2023/08/16 04:05:49;;;;;;;;;;;21.60;60.20;;;;;;4948807;28;88913;-45
2023/08/16 04:08:14;;;;;;;;;;;21.60;60.20;;;;;;4943865;28;87839;-46
2023/08/16 04:10:40;;;;;;;;;;;21.60;60.20;;;;;;4951754;28;87983;-46
2023/08/16 04:13:05;;;;;;;;;;;21.60;60.20;;;;;;4950275;28;87201;-45
2023/08/16 04:15:31;;;;;;;;;;;21.60;60.30;;;;;;4944536;28;88040;-46
2023/08/16 04:17:57;;;;;;;;;;;21.60;60.20;;;;;;4947744;28;88241;-46
2023/08/16 04:20:23;;;;;;;;;;;21.60;60.20;;;;;;4953526;28;87204;-45
2023/08/16 04:22:49;;;;;;;;;;;21.50;60.20;;;;;;4952559;28;87626;-45
2023/08/16 04:25:15;;;;;;;;;;;21.50;60.30;;;;;;4946070;28;88059;-45
2023/08/16 04:27:41;;;;;;;;;;;21.50;60.20;;;;;;4944588;28;88947;-46
2023/08/16 04:30:07;;;;;;;;;;;21.50;60.20;;;;;;4953692;28;87984;-45
2023/08/16 04:32:32;;;;;;;;;;;21.50;60.20;;;;;;4950486;28;87225;-46
2023/08/16 04:34:58;;;;;;;;;;;21.50;60.40;;;;;;4944374;28;88846;-45
2023/08/16 04:37:23;;;;;;;;;;;21.50;60.20;;;;;;4947973;28;88201;-45
2023/08/16 04:39:49;;;;;;;;;;;21.50;60.10;;;;;;4956332;28;87091;-45
2023/08/16 04:42:15;;;;;;;;;;;21.50;60.20;;;;;;4947241;28;87429;-46
2023/08/16 04:44:41;;;;;;;;;;;21.40;60.20;;;;;;4943757;28;87388;-46
2023/08/16 04:47:06;;;;;;;;;;;21.50;60.30;;;;;;4942826;28;88073;-45
2023/08/16 04:49:32;;;;;;;;;;;21.40;60.20;;;;;;4950321;28;88137;-46
2023/08/16 04:51:58;;;;;;;;;;;21.40;60.20;;;;;;4948721;28;87252;-46
2023/08/16 04:54:23;;;;;;;;;;;21.40;60.20;;;;;;4941763;28;87746;-46
2023/08/16 04:56:49;;;;;;;;;;;21.40;60.30;;;;;;4945630;28;88006;-46
2023/08/16 04:59:18;;;;;;;;;;;21.40;60.30;;;;;;4951717;28;87242;-45
2023/08/16 05:01:44;;;;;;;;;;;21.40;60.40;;;;;;4948184;28;87450;-46
2023/08/16 05:04:10;;;;;;;;;;;21.40;60.40;;;;;;4943033;28;88786;-46
2023/08/16 05:06:35;;;;;;;;;;;21.40;60.20;;;;;;4951719;28;87977;-46
2023/08/16 05:09:01;;;;;;;;;;;21.40;60.50;;;;;;4953437;28;87814;-45
2023/08/16 05:11:27;;;;;;;;;;;21.40;60.30;;;;;;4940905;28;87236;-46
2023/08/16 05:13:52;;;;;;;;;;;21.40;60.40;;;;;;4940345;28;88657;-47
2023/08/16 05:16:18;;;;;;;;;;;21.40;60.40;;;;;;4952474;28;87770;-45
2023/08/16 05:18:43;;;;;;;;;;;21.40;60.30;;;;;;4949971;28;87332;-46
2023/08/16 05:21:09;;;;;;;;;;;21.40;60.50;;;;;;4944625;28;88183;-48
2023/08/16 05:23:34;;;;;;;;;;;21.40;60.30;;;;;;4953954;28;88861;-47
2023/08/16 05:26:00;;;;;;;;;;;21.40;60.20;;;;;;4952491;28;87526;-45
2023/08/16 05:28:26;;;;;;;;;;;21.40;60.20;;;;;;4954208;28;87980;-46
2023/08/16 05:30:52;;;;;;;;;;;21.40;60.30;;;;;;4944581;28;86492;-46
2023/08/16 05:33:17;;;;;;;;;;;21.40;60.90;;;;;;4949674;28;87306;-47
2023/08/16 05:35:43;;;;;;;;;;;21.40;60.30;;;;;;4955695;28;88057;-45
2023/08/16 05:38:08;;;;;;;;;;;21.40;60.40;;;;;;4952759;28;88905;-46
2023/08/16 05:40:34;;;;;;;;;;;21.40;60.20;;;;;;4941813;28;88432;-45
2023/08/16 05:42:59;;;;;;;;;;;21.40;60.40;;;;;;4953211;28;87982;-45
2023/08/16 05:45:30;;;;;;;;;;;21.40;60.30;;;;;;4959049;28;87212;-46
2023/08/16 05:47:55;;;;;;;;;;;21.40;60.30;;;;;;4944036;28;87267;-46
2023/08/16 05:50:22;;;;;;;;;;;21.40;60.20;;;;;;4944349;28;87515;-45
2023/08/16 05:52:47;;;;;;;;;;;21.40;60.10;;;;;;4951738;28;87769;-46
2023/08/16 05:55:13;;;;;;;;;;;21.40;60.20;;;;;;4954240;28;86988;-46
2023/08/16 05:57:38;;;;;;;;;;;21.40;60.20;;;;;;4945873;28;87232;-45
2023/08/16 06:00:04;;;;;;;;;;;21.40;60.30;;;;;;4952800;28;88836;-45
2023/08/16 06:02:30;;;;;;;;;;;21.40;60.20;;;;;;4946438;28;88299;-46
2023/08/16 06:04:57;;;;;;;;;;;21.40;60.20;;;;;;4955871;28;87155;-45
2023/08/16 06:07:22;;;;;;;;;;;21.40;60.30;;;;;;4949304;28;89087;-46
2023/08/16 06:09:50;;;;;;;;;;;21.40;60.30;;;;;;4947392;28;87180;-46
2023/08/16 06:12:15;;;;;;;;;;;21.40;60.30;;;;;;4952978;28;87706;-46
2023/08/16 06:14:41;;;;;;;;;;;21.50;60.50;;;;;;4955768;28;87776;-45
2023/08/16 06:17:06;;;;;;;;;;;21.40;60.30;;;;;;4940059;28;87375;-47
2023/08/16 06:19:32;;;;;;;;;;;21.40;60.30;;;;;;4942463;28;88852;-45
2023/08/16 06:21:59;;;;;;;;;;;21.40;60.30;;;;;;4953311;28;87508;-45
2023/08/16 06:24:25;;;;;;;;;;;21.40;60.30;;;;;;4956116;28;87130;-46
2023/08/16 06:26:51;;;;;;;;;;;21.40;60.30;;;;;;4946322;28;89008;-45
2023/08/16 06:29:16;;;;;;;;;;;21.40;60.40;;;;;;4944906;28;87502;-46
2023/08/16 06:31:42;;;;;;;;;;;21.40;60.30;;;;;;4952532;28;87465;-45
2023/08/16 06:34:07;;;;;;;;;;;21.40;60.20;;;;;;4953694;28;88344;-45
2023/08/16 06:36:33;;;;;;;;;;;21.40;60.20;;;;;;4944531;28;87330;-46
2023/08/16 06:38:58;;;;;;;;;;;21.40;60.40;;;;;;4951368;28;87484;-46
2023/08/16 06:41:24;;;;;;;;;;;21.40;60.30;;;;;;4954841;28;88247;-46
2023/08/16 06:43:49;;;;;;;;;;;21.40;60.40;;;;;;4949811;28;86494;-45
2023/08/16 06:46:15;;;;;;;;;;;21.50;60.40;;;;;;4946202;28;87173;-46
2023/08/16 06:48:40;;;;;;;;;;;21.50;60.40;;;;;;4951879;28;88378;-46
2023/08/16 06:51:06;;;;;;;;;;;21.50;60.40;;;;;;4952984;28;88544;-46
2023/08/16 06:53:33;;;;;;;;;;;21.40;60.30;;;;;;4950396;28;87293;-46
2023/08/16 06:55:58;;;;;;;;;;;21.40;60.40;;;;;;4950787;28;87108;-45
2023/08/16 06:58:24;;;;;;;;;;;21.50;60.50;;;;;;4949518;28;87310;-45
2023/08/16 07:00:50;;;;;;;;;;;21.40;60.40;;;;;;4954229;28;88196;-45
2023/08/16 07:03:17;;;;;;;;;;;21.50;60.50;;;;;;4949617;28;87162;-46
2023/08/16 07:05:42;;;;;;;;;;;21.40;60.40;;;;;;4939235;28;89190;-46
2023/08/16 07:08:08;;;;;;;;;;;21.50;60.50;;;;;;4951408;28;87455;-46
2023/08/16 07:10:34;;;;;;;;;;;21.40;60.40;;;;;;4955141;28;87121;-45
2023/08/16 07:13:00;;;;;;;;;;;21.40;60.50;;;;;;4941818;28;88146;-47
2023/08/16 07:15:25;;;;;;;;;;;21.40;60.50;;;;;;4948046;28;88125;-46
2023/08/16 07:17:51;;;;;;;;;;;21.50;60.50;;;;;;4949025;28;88456;-46
2023/08/16 07:20:16;;;;;;;;;;;21.40;60.50;;;;;;4949567;28;88045;-46
2023/08/16 07:22:42;;;;;;;;;;;21.50;60.50;;;;;;4944600;28;87172;-46
2023/08/16 07:25:08;;;;;;;;;;;21.50;60.50;;;;;;4942035;28;87425;-47
2023/08/16 07:27:34;;;;;;;;;;;21.50;60.50;;;;;;4953322;28;87195;-46
2023/08/16 07:30:00;;;;;;;;;;;21.50;60.40;;;;;;4952892;28;87131;-47
2023/08/16 07:32:26;;;;;;;;;;;21.50;60.50;;;;;;4948374;28;87463;-46
2023/08/16 07:34:51;;;;;;;;;;;21.50;60.40;;;;;;4937811;28;87127;-46
2023/08/16 07:37:17;;;;;;;;;;;21.50;60.30;;;;;;4954759;28;87124;-46
2023/08/16 07:39:44;;;;;;;;;;;21.50;60.20;;;;;;4953164;28;88746;-46
2023/08/16 07:42:09;;;;;;;;;;;21.50;60.40;;;;;;4939646;28;87147;-46
2023/08/16 07:44:35;;;;;;;;;;;21.50;60.20;;;;;;4944091;28;87562;-46
2023/08/16 07:47:01;;;;;;;;;;;21.50;60.20;;;;;;4953839;28;88463;-46
2023/08/16 07:49:26;;;;;;;;;;;21.50;60.00;;;;;;4951409;28;87199;-46
2023/08/16 07:51:55;;;;;;;;;;;21.50;59.90;;;;;;4944484;28;87175;-46
2023/08/16 07:54:23;;;;;;;;;;;21.50;60.20;;;;;;4948449;28;89509;-45
2023/08/16 07:56:50;;;;;;;;;;;21.50;61.10;;;;;;4954117;28;87560;-46
2023/08/16 07:59:15;;;;;;;;;;;21.50;61.50;;;;;;4953295;28;87329;-47
2023/08/16 08:01:40;;;;;;;;;;;21.50;61.70;;;;;;4948219;28;87132;-46
2023/08/16 08:04:06;;;;;;;;;;;21.50;61.70;;;;;;4943348;28;89187;-46
2023/08/16 08:06:32;;;;;;;;;;;21.50;61.60;;;;;;4954751;28;88286;-46
2023/08/16 08:08:58;;;;;;;;;;;21.50;61.80;;;;;;4943290;28;87012;-46
2023/08/16 08:11:23;;;;;;;;;;;21.50;61.60;;;;;;4945230;28;89081;-45
2023/08/16 08:13:49;;;;;;;;;;;21.50;61.90;;;;;;4943969;28;89118;-47
2023/08/16 08:16:14;;;;;;;;;;;21.50;62.10;;;;;;4955380;28;87179;-46
2023/08/16 08:18:40;;;;;;;;;;;21.50;62.40;;;;;;4947937;28;88752;-45
2023/08/16 08:21:05;;;;;;;;;;;21.50;62.70;;;;;;4944666;28;86534;-46
2023/08/16 08:23:31;;;;;;;;;;;21.50;62.70;;;;;;4948215;28;87104;-49
2023/08/16 08:25:56;;;;;;;;;;;21.60;62.70;;;;;;4954080;28;88137;-46
2023/08/16 08:28:22;;;;;;;;;;;21.60;62.50;;;;;;4946254;28;88531;-47
2023/08/16 08:30:48;;;;;;;;;;;21.60;62.50;;;;;;4945226;28;90266;-46
2023/08/16 08:33:13;;;;;;;;;;;21.60;62.50;;;;;;4946738;28;88018;-46
2023/08/16 08:35:39;;;;;;;;;;;21.60;62.60;;;;;;4951777;28;87113;-46
2023/08/16 08:38:04;;;;;;;;;;;21.60;62.60;;;;;;4942764;28;87998;-45
2023/08/16 08:40:30;;;;;;;;;;;21.70;62.90;;;;;;4944080;28;88416;-48
2023/08/16 08:42:57;;;;;;;;;;;21.60;62.90;;;;;;4948292;28;89119;-45
2023/08/16 08:45:23;;;;;;;;;;;21.60;63.00;;;;;;4950557;28;87212;-47
2023/08/16 08:47:49;;;;;;;;;;;21.60;63.60;;;;;;4944039;28;87352;-46
2023/08/16 08:50:14;;;;;;;;;;;21.70;63.30;;;;;;4943693;28;87565;-47
2023/08/16 08:52:41;;;;;;;;;;;21.70;63.00;;;;;;4949424;28;88815;-46
2023/08/16 08:55:06;;;;;;;;;;;21.70;63.00;;;;;;4952228;28;87117;-45
2023/08/16 08:57:33;;;;;;;;;;;21.70;62.90;;;;;;4950179;28;87266;-46
2023/08/16 09:00:00;;;;;;;;;;;21.80;63.10;;;;;;4945158;28;87142;-46
2023/08/16 09:02:28;;;;;;;;;;;21.70;63.20;;;;;;4957537;28;87437;-47
2023/08/16 09:04:55;;;;;;;;;;;21.70;63.10;;;;;;4944576;28;88054;-46
2023/08/16 09:07:22;;;;;;;;;;;21.70;63.10;;;;;;4956629;28;87099;-47
2023/08/16 09:09:49;;;;;;;;;;;21.80;63.10;;;;;;4951853;28;88849;-46
2023/08/16 09:12:14;;;;;;;;;;;21.80;63.10;;;;;;4946284;28;88235;-46
2023/08/16 09:14:40;;;;;;;;;;;21.80;63.30;;;;;;4953639;28;87166;-47
2023/08/16 09:17:06;;;;;;;;;;;21.80;63.30;;;;;;4954320;28;87967;-47
2023/08/16 09:19:32;;;;;;;;;;;21.80;63.20;;;;;;4940999;28;87764;-47
2023/08/16 09:21:57;;;;;;;;;;;21.80;63.30;;;;;;4946102;28;87889;-46
2023/08/16 09:24:26;;;;;;;;;;;21.90;63.40;;;;;;4956243;28;87959;-48
2023/08/16 09:26:52;;;;;;;;;;;21.90;63.30;;;;;;4954733;28;87238;-46
2023/08/16 09:29:18;;;;;;;;;;;21.80;63.20;;;;;;4945488;28;87684;-48
2023/08/16 09:31:46;;;;;;;;;;;21.90;63.30;;;;;;4953890;28;88968;-47
2023/08/16 09:34:14;;;;;;;;;;;21.90;63.20;;;;;;4951155;28;86590;-46
2023/08/16 09:36:45;;;;;;;;;;;21.90;63.10;;;;;;4953185;28;87053;-46
2023/08/16 09:39:11;;;;;;;;;;;21.90;63.10;;;;;;4951183;28;88729;-49
2023/08/16 09:41:45;;;;;;;;;;;22.00;63.30;;;;;;4951217;28;88087;-46
2023/08/16 09:44:10;;;;;;;;;;;21.90;63.30;;;;;;4957268;28;88067;-46
2023/08/16 09:46:38;;;;;;;;;;;22.00;63.40;;;;;;4943131;28;87143;-46
2023/08/16 09:49:07;;;;;;;;;;;22.00;63.50;;;;;;4942092;28;87425;-48
2023/08/16 09:51:36;;;;;;;;;;;22.00;63.60;;;;;;4951868;28;87369;-48
2023/08/16 09:54:03;;;;;;;;;;;22.00;63.60;;;;;;4954969;28;87117;-45
2023/08/16 09:56:31;;;;;;;;;;;22.00;63.50;;;;;;4949302;28;87307;-46
2023/08/16 09:58:58;;;;;;;;;;;22.10;63.40;;;;;;4949379;28;87274;-47
2023/08/16 10:01:23;;;;;;;;;;;22.10;63.30;;;;;;4954512;28;87145;-46
2023/08/16 10:03:52;;;;;;;;;;;22.10;63.30;;;;;;4959131;28;88094;-46
2023/08/16 10:06:18;;;;;;;;;;;22.10;63.40;;;;;;4942364;28;88188;-46
2023/08/16 10:08:44;;;;;;;;;;;22.10;63.50;;;;;;4947382;28;88982;-46
2023/08/16 10:11:10;;;;;;;;;;;22.10;63.50;;;;;;4955201;28;88123;-45
2023/08/16 10:13:35;;;;;;;;;;;22.20;63.50;;;;;;4951008;28;87025;-46
2023/08/16 10:16:01;;;;;;;;;;;22.20;63.50;;;;;;4948076;28;88236;-46
2023/08/16 10:18:27;;;;;;;;;;;22.20;63.50;;;;;;4947031;28;88048;-46
2023/08/16 10:20:55;;;;;;;;;;;22.20;63.50;;;;;;4953934;28;87197;-47
2023/08/16 10:23:21;;;;;;;;;;;22.20;63.50;;;;;;4953621;28;87428;-46
2023/08/16 10:25:47;;;;;;;;;;;22.20;63.40;;;;;;4948740;28;87079;-46
2023/08/16 10:28:14;;;;;;;;;;;22.30;63.30;;;;;;4949449;28;87448;-45
2023/08/16 10:30:41;;;;;;;;;;;22.30;63.20;;;;;;4952063;28;89010;-46
2023/08/16 10:33:23;;;;;;;;;;;22.30;63.20;;;;;;4948954;28;89125;-46
2023/08/16 10:35:50;;;;;;;;;;;22.40;63.40;;;;;;4947015;28;87538;-46
2023/08/16 10:38:16;;;;;;;;;;;22.30;63.30;;;;;;4952634;28;89419;-46
2023/08/16 10:40:42;;;;;;;;;;;22.40;63.30;;;;;;4950951;28;87243;-46
2023/08/16 10:43:08;;;;;;;;;;;22.40;63.20;;;;;;4954681;28;87011;-46
2023/08/16 10:45:34;;;;;;;;;;;22.40;63.30;;;;;;4953360;28;87374;-46
2023/08/16 10:48:33;;;;;;;;;;;22.50;63.30;;;;;;4950347;28;87537;-46
2023/08/16 10:51:02;;;;;;;;;;;22.40;63.20;;;;;;4937825;28;87917;-46
2023/08/16 10:53:27;;;;;;;;;;;22.50;63.30;;;;;;4956221;28;87086;-46
2023/08/16 10:55:55;;;;;;;;;;;22.50;63.20;;;;;;4944138;28;89562;-48
2023/08/16 10:58:23;;;;;;;;;;;22.60;63.20;;;;;;4947549;28;88440;-46
2023/08/16 11:00:58;;;;;;;;;;;22.60;63.10;;;;;;4955062;28;87100;-47
2023/08/16 11:03:30;;;;;;;;;;;22.60;63.00;;;;;;4946291;28;87897;-46
2023/08/16 11:05:57;;;;;;;;;;;22.60;63.00;;;;;;4943300;28;88201;-45
2023/08/16 11:08:23;;;;;;;;;;;22.60;62.90;;;;;;4947154;28;87610;-46
2023/08/16 11:10:50;;;;;;;;;;;22.60;62.90;;;;;;4955041;28;88580;-47
2023/08/16 11:13:15;;;;;;;;;;;22.60;62.70;;;;;;4955410;28;86454;-46
2023/08/16 11:15:41;;;;;;;;;;;22.70;62.60;;;;;;4942184;28;89630;-46
2023/08/16 11:18:06;;;;;;;;;;;22.70;62.60;;;;;;4945253;28;88053;-46
2023/08/16 11:20:32;;;;;;;;;;;22.80;62.50;;;;;;4952983;28;88107;-45
2023/08/16 11:22:58;;;;;;;;;;;22.80;62.60;;;;;;4947755;28;88268;-46
2023/08/16 11:25:29;;;;;;;;;;;22.80;62.50;;;;;;4940631;28;88565;-46
2023/08/16 11:27:59;;;;;;;;;;;22.80;62.50;;;;;;4948994;28;87148;-49
2023/08/16 11:30:25;;;;;;;;;;;22.90;62.50;;;;;;4951676;28;87585;-45
2023/08/16 11:32:50;;;;;;;;;;;22.80;62.40;;;;;;4953176;28;87280;-46
2023/08/16 11:35:16;;;;;;;;;;;22.90;62.40;;;;;;4945602;28;88991;-46
2023/08/16 11:37:41;;;;;;;;;;;22.90;62.40;;;;;;4949503;28;88825;-45
2023/08/16 11:40:09;;;;;;;;;;;23.00;62.40;;;;;;4954072;28;87162;-46
2023/08/16 11:42:34;;;;;;;;;;;23.00;62.40;;;;;;4941339;28;87529;-45
2023/08/16 11:45:00;;;;;;;;;;;23.00;62.40;;;;;;4943252;28;89655;-47
2023/08/16 11:47:26;;;;;;;;;;;23.00;62.40;;;;;;4952314;28;87040;-46
2023/08/16 11:49:51;;;;;;;;;;;23.00;62.30;;;;;;4953773;28;87086;-47
2023/08/16 11:52:23;;;;;;;;;;;23.00;62.30;;;;;;4947450;28;89479;-46
2023/08/16 11:55:01;;;;;;;;;;;23.00;62.30;;;;;;4942740;28;88881;-45
2023/08/16 11:57:27;;;;;;;;;;;23.10;62.20;;;;;;4947960;28;88032;-47
2023/08/16 11:59:54;;;;;;;;;;;23.10;62.20;;;;;;4951709;28;87195;-46
2023/08/16 12:02:20;;;;;;;;;;;23.10;62.10;;;;;;4939927;28;88009;-46
2023/08/16 12:04:45;;;;;;;;;;;23.10;62.10;;;;;;4941097;28;87239;-47
2023/08/16 12:07:11;;;;;;;;;;;23.10;62.10;;;;;;4950655;28;87023;-47
2023/08/16 12:09:40;;;;;;;;;;;23.20;62.10;;;;;;4945185;28;88426;-45
2023/08/16 12:12:10;;;;;;;;;;;23.20;62.10;;;;;;4950717;28;89432;-48
2023/08/16 12:14:36;;;;;;;;;;;23.20;62.10;;;;;;4950176;28;87202;-46
2023/08/16 12:17:02;;;;;;;;;;;23.20;62.10;;;;;;4952679;28;89100;-46
2023/08/16 12:19:28;;;;;;;;;;;23.20;62.10;;;;;;4949124;28;87149;-46
2023/08/16 12:21:53;;;;;;;;;;;23.30;62.20;;;;;;4938939;28;87534;-46
2023/08/16 12:24:19;;;;;;;;;;;23.30;62.20;;;;;;4947180;28;87281;-46
2023/08/16 12:26:45;;;;;;;;;;;23.30;62.20;;;;;;4954512;28;86528;-45
2023/08/16 12:29:10;;;;;;;;;;;23.30;62.10;;;;;;4950337;28;87368;-46
2023/08/16 12:31:36;;;;;;;;;;;23.30;62.20;;;;;;4944715;28;88121;-46
2023/08/16 12:34:02;;;;;;;;;;;23.40;62.20;;;;;;4952416;28;88619;-46
2023/08/16 12:36:27;;;;;;;;;;;23.40;62.20;;;;;;4951347;28;88002;-46
2023/08/16 12:38:52;;;;;;;;;;;23.40;62.20;;;;;;4945656;28;87253;-46
2023/08/16 12:41:18;;;;;;;;;;;23.40;62.20;;;;;;4946062;28;87482;-45
2023/08/16 12:43:44;;;;;;;;;;;23.40;62.10;;;;;;4949360;28;88057;-46
2023/08/16 12:46:09;;;;;;;;;;;23.50;62.20;;;;;;4951527;28;87147;-46
2023/08/16 12:48:35;;;;;;;;;;;23.50;62.30;;;;;;4950350;28;88882;-46
2023/08/16 12:51:00;;;;;;;;;;;23.50;62.20;;;;;;4947819;28;87036;-46
2023/08/16 12:53:30;;;;;;;;;;;23.50;62.20;;;;;;4949794;28;87220;-47
2023/08/16 12:55:56;;;;;;;;;;;23.50;62.30;;;;;;4955540;28;88058;-46
2023/08/16 12:58:22;;;;;;;;;;;23.60;62.40;;;;;;4939130;28;89048;-46
2023/08/16 13:00:47;;;;;;;;;;;23.60;62.50;;;;;;4945986;28;88487;-46
2023/08/16 13:03:13;;;;;;;;;;;23.60;62.40;;;;;;4950526;28;88145;-45
2023/08/16 13:05:38;;;;;;;;;;;23.70;62.50;;;;;;4952355;28;88249;-46
2023/08/16 13:08:05;;;;;;;;;;;23.70;62.40;;;;;;4940386;28;87147;-46
2023/08/16 13:10:31;;;;;;;;;;;23.70;62.50;;;;;;4945860;28;88134;-46
2023/08/16 13:12:56;;;;;;;;;;;23.70;62.40;;;;;;4951514;28;87217;-46
2023/08/16 13:15:22;;;;;;;;;;;23.80;62.50;;;;;;4952201;28;87154;-46
2023/08/16 13:17:47;;;;;;;;;;;23.80;62.40;;;;;;4945250;28;88833;-46
2023/08/16 13:20:14;;;;;;;;;;;23.80;62.50;;;;;;4948961;28;87594;-46
2023/08/16 13:22:39;;;;;;;;;;;23.80;62.50;;;;;;4948531;28;88093;-47
2023/08/16 13:25:06;;;;;;;;;;;23.80;62.50;;;;;;4949521;28;87454;-46
2023/08/16 13:27:31;;;;;;;;;;;23.90;62.60;;;;;;4945887;28;87543;-45
2023/08/16 13:29:57;;;;;;;;;;;23.90;62.70;;;;;;4946042;28;88083;-46
2023/08/16 13:32:23;;;;;;;;;;;23.90;62.70;;;;;;4950287;28;87254;-47
2023/08/16 13:34:48;;;;;;;;;;;24.00;62.80;;;;;;4950742;28;87100;-47
2023/08/16 13:37:14;;;;;;;;;;;24.00;62.70;;;;;;4949364;28;87998;-46
2023/08/16 13:39:40;;;;;;;;;;;24.00;62.70;;;;;;4950834;28;86292;-47
2023/08/16 13:42:05;;;;;;;;;;;24.00;62.60;;;;;;4950186;28;88139;-46
2023/08/16 13:44:31;;;;;;;;;;;24.10;62.70;;;;;;4952206;28;88318;-47
2023/08/16 13:46:56;;;;;;;;;;;24.10;62.60;;;;;;4942111;28;89041;-46
2023/08/16 13:49:22;;;;;;;;;;;24.10;62.60;;;;;;4950816;28;87987;-46
2023/08/16 13:51:48;;;;;;;;;;;24.10;62.60;;;;;;4953026;28;87068;-46
2023/08/16 13:54:13;;;;;;;;;;;24.20;62.60;;;;;;4948437;28;88252;-46
2023/08/16 13:56:39;;;;;;;;;;;24.20;62.70;;;;;;4949517;28;88530;-46
2023/08/16 13:59:04;;;;;;;;;;;24.20;62.60;;;;;;4952076;28;87187;-46
2023/08/16 14:01:30;;;;;;;;;;;24.20;62.60;;;;;;4952082;28;89014;-46
2023/08/16 14:03:55;;;;;;;;;;;24.20;62.60;;;;;;4949275;28;87212;-45
2023/08/16 14:06:21;;;;;;;;;;;24.30;62.70;;;;;;4943298;28;87258;-46
2023/08/16 14:08:46;;;;;;;;;;;24.30;62.50;;;;;;4951438;28;88718;-46
2023/08/16 14:11:14;;;;;;;;;;;24.30;62.60;;;;;;4954575;28;88107;-46